createdAt,value
2018-04-19T00:00:05.997Z,15.23
2018-04-19T00:02:33.567Z,15.30
2018-04-19T00:05:01.140Z,15.27
2018-04-19T00:07:28.857Z,15.19
2018-04-19T00:09:56.488Z,15.10
2018-04-19T00:12:24.064Z,15.05
2018-04-19T00:14:51.791Z,14.97
2018-04-19T00:17:19.375Z,14.95
2018-04-19T00:19:47.148Z,14.98
2018-04-19T00:22:14.775Z,15.04
2018-04-19T00:24:42.497Z,15.04
2018-04-19T00:27:10.134Z,14.99
2018-04-19T00:29:37.724Z,14.89
2018-04-19T00:32:05.349Z,14.82
2018-04-19T00:34:32.979Z,14.80
2018-04-19T00:37:00.777Z,14.77
2018-04-19T00:39:28.352Z,14.73
2018-04-19T00:41:55.929Z,14.77
2018-04-19T00:44:23.563Z,14.78
2018-04-19T00:46:51.228Z,14.78
2018-04-19T00:49:18.796Z,14.82
2018-04-19T00:51:46.364Z,14.85
2018-04-19T00:54:13.957Z,14.91
2018-04-19T00:56:41.541Z,14.94
2018-04-19T00:59:09.339Z,14.89
2018-04-19T01:01:36.964Z,14.84
2018-04-19T01:04:04.721Z,14.75
2018-04-19T01:06:32.588Z,14.75
2018-04-19T01:09:00.301Z,14.75
2018-04-19T01:11:27.876Z,14.78
2018-04-19T01:13:55.646Z,14.83
2018-04-19T01:16:23.465Z,14.92
2018-04-19T01:18:51.092Z,14.90
2018-04-19T01:21:18.715Z,14.90
2018-04-19T01:23:46.519Z,14.90
2018-04-19T01:26:14.136Z,14.93
2018-04-19T01:28:41.746Z,14.99
2018-04-19T01:31:09.574Z,14.99
2018-04-19T01:33:37.141Z,14.88
2018-04-19T01:36:16.573Z,14.78
2018-04-19T01:38:44.248Z,14.75
2018-04-19T01:41:11.820Z,14.73
2018-04-19T01:43:39.437Z,14.69
2018-04-19T01:46:07.323Z,14.68
2018-04-19T01:48:35.142Z,14.65
2018-04-19T01:51:02.852Z,14.71
2018-04-19T01:53:30.429Z,14.72
2018-04-19T01:55:58.174Z,14.71
2018-04-19T01:58:25.772Z,14.72
2018-04-19T02:00:53.356Z,14.71
2018-04-19T02:03:20.921Z,14.79
2018-04-19T02:05:48.521Z,14.80
2018-04-19T02:08:16.286Z,14.80
2018-04-19T02:10:44.105Z,14.83
2018-04-19T02:13:11.680Z,14.90
2018-04-19T02:15:39.245Z,14.96
2018-04-19T02:18:06.805Z,14.97
2018-04-19T02:20:34.540Z,14.97
2018-04-19T02:23:02.298Z,14.93
2018-04-19T02:25:29.904Z,14.86
2018-04-19T02:27:57.475Z,14.85
2018-04-19T02:30:25.105Z,14.79
2018-04-19T02:32:52.727Z,14.77
2018-04-19T02:35:20.265Z,14.74
2018-04-19T02:37:47.829Z,14.81
2018-04-19T02:40:15.623Z,14.81
2018-04-19T02:42:43.352Z,14.85
2018-04-19T02:45:11.159Z,14.92
2018-04-19T02:47:38.756Z,14.92
2018-04-19T02:50:06.337Z,14.97
2018-04-19T02:52:34.114Z,15.01
2018-04-19T02:55:02.172Z,15.01
2018-04-19T02:57:29.755Z,14.98
2018-04-19T02:59:57.569Z,14.99
2018-04-19T03:02:25.152Z,14.96
2018-04-19T03:04:52.725Z,14.96
2018-04-19T03:07:20.522Z,14.99
2018-04-19T03:09:48.341Z,15.02
2018-04-19T03:12:16.170Z,15.00
2018-04-19T03:14:43.748Z,14.96
2018-04-19T03:17:11.317Z,14.92
2018-04-19T03:19:39.112Z,14.92
2018-04-19T03:22:06.662Z,14.91
2018-04-19T03:24:34.224Z,14.89
2018-04-19T03:27:02.032Z,14.89
2018-04-19T03:29:29.886Z,14.92
2018-04-19T03:31:57.706Z,14.95
2018-04-19T03:34:25.288Z,14.90
2018-04-19T03:36:52.849Z,14.80
2018-04-19T03:39:20.433Z,14.69
2018-04-19T03:41:48.001Z,14.67
2018-04-19T03:44:15.617Z,14.72
2018-04-19T03:46:43.181Z,14.73
2018-04-19T03:49:10.776Z,14.77
2018-04-19T03:51:38.348Z,14.74
2018-04-19T03:54:05.926Z,14.73
2018-04-19T03:56:33.544Z,14.78
2018-04-19T03:59:01.108Z,14.76
2018-04-19T04:01:28.689Z,14.82
2018-04-19T04:03:56.414Z,14.83
2018-04-19T04:06:24.162Z,14.83
2018-04-19T04:08:51.837Z,14.82
2018-04-19T04:11:19.416Z,14.83
2018-04-19T04:16:25.790Z,14.93
2018-04-19T04:19:05.089Z,14.98
2018-04-19T04:21:32.951Z,14.94
2018-04-19T04:24:00.521Z,14.88
2018-04-19T04:26:28.103Z,14.90
2018-04-19T04:28:55.880Z,14.95
2018-04-19T04:31:23.635Z,15.00
2018-04-19T04:33:51.204Z,15.05
2018-04-19T04:36:18.767Z,15.11
2018-04-19T04:38:46.364Z,15.10
2018-04-19T04:41:14.092Z,15.13
2018-04-19T04:43:41.677Z,15.18
2018-04-19T04:46:09.327Z,15.26
2018-04-19T04:48:36.957Z,15.32
2018-04-19T04:51:04.573Z,15.35
2018-04-19T04:53:32.181Z,15.44
2018-04-19T04:55:59.996Z,15.56
2018-04-19T04:58:27.568Z,15.61
2018-04-19T05:00:55.126Z,15.63
2018-04-19T05:03:22.743Z,15.72
2018-04-19T05:05:50.421Z,15.76
2018-04-19T05:08:18.054Z,15.81
2018-04-19T05:10:45.804Z,15.86
2018-04-19T05:13:13.626Z,15.94
2018-04-19T05:15:41.192Z,16.18
2018-04-19T05:18:08.772Z,16.47
2018-04-19T05:20:36.578Z,16.68
2018-04-19T05:23:04.209Z,16.75
2018-04-19T05:25:32.015Z,16.77
2018-04-19T05:27:59.672Z,16.77
2018-04-19T05:30:27.322Z,16.74
2018-04-19T05:32:54.884Z,16.76
2018-04-19T05:35:22.469Z,16.89
2018-04-19T05:37:50.040Z,17.05
2018-04-19T05:40:17.680Z,17.24
2018-04-19T05:42:45.261Z,17.32
2018-04-19T05:45:13.058Z,17.39
2018-04-19T05:47:40.636Z,17.35
2018-04-19T05:50:08.298Z,17.30
2018-04-19T05:52:36.116Z,17.26
2018-04-19T05:55:03.813Z,17.28
2018-04-19T05:57:31.629Z,17.37
2018-04-19T05:59:59.368Z,17.41
2018-04-19T06:02:26.978Z,17.40
2018-04-19T06:04:54.548Z,17.42
2018-04-19T06:07:22.130Z,17.41
2018-04-19T06:09:49.709Z,17.51
2018-04-19T06:12:17.272Z,17.55
2018-04-19T06:14:44.972Z,17.55
2018-04-19T06:17:12.795Z,17.55
2018-04-19T06:19:40.403Z,17.58
2018-04-19T06:22:08.073Z,17.64
2018-04-19T06:24:35.816Z,17.68
2018-04-19T06:27:03.531Z,17.62
2018-04-19T06:29:31.176Z,17.54
2018-04-19T06:31:58.809Z,17.49
2018-04-19T06:34:26.412Z,17.49
2018-04-19T06:36:53.965Z,17.42
2018-04-19T06:39:21.647Z,17.34
2018-04-19T06:41:49.375Z,17.34
2018-04-19T06:44:17.193Z,17.36
2018-04-19T06:46:45.013Z,17.39
2018-04-19T06:49:12.722Z,17.42
2018-04-19T06:51:40.449Z,17.42
2018-04-19T06:54:08.060Z,17.51
2018-04-19T06:56:35.680Z,17.62
2018-04-19T06:59:03.531Z,17.66
2018-04-19T07:01:31.112Z,17.71
2018-04-19T07:03:58.839Z,17.79
2018-04-19T07:06:26.634Z,17.91
2018-04-19T07:08:54.258Z,18.04
2018-04-19T07:11:21.838Z,18.19
2018-04-19T07:13:49.413Z,18.38
2018-04-19T07:16:17.232Z,18.49
2018-04-19T07:18:44.805Z,18.71
2018-04-19T07:21:12.367Z,18.93
2018-04-19T07:23:40.076Z,19.18
2018-04-19T07:26:07.694Z,19.27
2018-04-19T07:28:35.422Z,19.23
2018-04-19T07:31:03.041Z,19.24
2018-04-19T07:33:30.757Z,19.26
2018-04-19T07:35:58.313Z,19.25
2018-04-19T07:38:25.865Z,19.16
2018-04-19T07:40:53.497Z,19.04
2018-04-19T07:43:21.088Z,19.16
2018-04-19T07:45:48.656Z,19.30
2018-04-19T07:48:16.407Z,19.35
2018-04-19T07:50:44.101Z,19.37
2018-04-19T07:53:11.668Z,19.54
2018-04-19T07:55:39.240Z,19.65
2018-04-19T07:58:06.997Z,19.69
2018-04-19T08:00:34.584Z,19.84
2018-04-19T08:03:02.349Z,20.06
2018-04-19T08:05:29.997Z,20.17
2018-04-19T08:07:57.755Z,20.19
2018-04-19T08:10:25.477Z,20.15
2018-04-19T08:12:53.138Z,19.95
2018-04-19T08:15:20.765Z,19.74
2018-04-19T08:17:48.337Z,19.69
2018-04-19T08:20:15.890Z,19.64
2018-04-19T08:22:43.648Z,19.63
2018-04-19T08:25:11.221Z,19.70
2018-04-19T08:27:38.797Z,19.70
2018-04-19T08:30:06.371Z,19.59
2018-04-19T08:32:34.236Z,19.60
2018-04-19T08:35:01.801Z,19.72
2018-04-19T08:37:29.372Z,19.86
2018-04-19T08:39:56.977Z,20.11
2018-04-19T08:42:24.558Z,20.68
2018-04-19T08:44:52.135Z,21.09
2018-04-19T08:47:19.698Z,21.36
2018-04-19T08:49:47.316Z,21.87
2018-04-19T08:52:15.076Z,22.31
2018-04-19T08:54:42.893Z,22.38
2018-04-19T08:57:10.469Z,22.48
2018-04-19T08:59:38.015Z,22.80
2018-04-19T09:02:05.597Z,23.25
2018-04-19T09:04:33.329Z,24.12
2018-04-19T09:07:00.946Z,25.25
2018-04-19T09:09:28.509Z,26.66
2018-04-19T09:11:56.110Z,28.11
2018-04-19T09:14:23.689Z,29.14
2018-04-19T09:16:51.456Z,29.81
2018-04-19T09:19:19.274Z,30.17
2018-04-19T09:21:47.204Z,30.31
2018-04-19T09:24:15.013Z,29.55
2018-04-19T09:26:42.874Z,28.90
2018-04-19T09:29:10.436Z,29.36
2018-04-19T09:31:38.034Z,29.84
2018-04-19T09:34:05.675Z,30.08
2018-04-19T09:36:33.514Z,29.12
2018-04-19T09:39:01.164Z,28.18
2018-04-19T09:41:29.041Z,27.32
2018-04-19T09:43:56.859Z,26.47
2018-04-19T09:46:24.680Z,25.50
2018-04-19T09:48:52.497Z,25.16
2018-04-19T09:51:23.203Z,26.01
2018-04-19T09:53:50.894Z,26.46
2018-04-19T09:56:18.413Z,26.71
2018-04-19T09:58:46.044Z,26.78
2018-04-19T10:01:13.800Z,26.60
2018-04-19T10:03:46.432Z,25.99
2018-04-19T10:06:14.151Z,25.31
2018-04-19T10:08:41.919Z,24.69
2018-04-19T10:11:09.521Z,25.57
2018-04-19T10:13:37.305Z,26.07
2018-04-19T10:16:05.141Z,27.04
2018-04-19T10:18:32.766Z,27.74
2018-04-19T10:21:00.371Z,28.03
2018-04-19T10:23:27.937Z,27.98
2018-04-19T10:25:55.556Z,28.67
2018-04-19T10:28:23.138Z,29.10
2018-04-19T10:30:50.700Z,29.55
2018-04-19T10:33:18.451Z,29.83
2018-04-19T10:35:46.025Z,29.76
2018-04-19T10:38:13.693Z,29.22
2018-04-19T10:40:41.396Z,28.16
2018-04-19T10:43:09.328Z,26.90
2018-04-19T10:45:37.142Z,25.98
2018-04-19T10:48:04.708Z,25.25
2018-04-19T10:50:32.303Z,24.53
2018-04-19T10:52:59.862Z,24.40
2018-04-19T10:55:27.439Z,24.71
2018-04-19T10:57:55.210Z,24.89
2018-04-19T11:00:22.965Z,25.20
2018-04-19T11:02:50.769Z,25.01
2018-04-19T11:05:18.490Z,24.67
2018-04-19T11:07:46.306Z,24.34
2018-04-19T11:10:14.058Z,24.04
2018-04-19T11:12:41.845Z,24.08
2018-04-19T11:15:09.413Z,24.79
2018-04-19T11:17:37.029Z,25.99
2018-04-19T11:20:04.622Z,26.75
2018-04-19T11:22:32.430Z,26.56
2018-04-19T11:25:00.012Z,25.72
2018-04-19T11:27:27.752Z,25.64
2018-04-19T11:29:55.345Z,25.94
2018-04-19T11:32:22.978Z,26.44
2018-04-19T11:34:50.718Z,25.78
2018-04-19T11:37:18.321Z,25.17
2018-04-19T11:39:46.041Z,24.92
2018-04-19T11:42:13.614Z,24.52
2018-04-19T11:44:41.169Z,24.21
2018-04-19T11:47:08.893Z,24.91
2018-04-19T11:49:36.519Z,25.72
2018-04-19T11:52:04.431Z,26.43
2018-04-19T11:54:32.074Z,26.36
2018-04-19T11:56:59.677Z,25.56
2018-04-19T11:59:27.277Z,24.81
2018-04-19T12:01:54.872Z,24.74
2018-04-19T12:04:22.524Z,24.88
2018-04-19T12:06:50.080Z,24.82
2018-04-19T12:09:17.859Z,24.75
2018-04-19T12:11:45.466Z,24.72
2018-04-19T12:14:13.081Z,25.33
2018-04-19T12:16:40.735Z,26.44
2018-04-19T12:19:08.301Z,27.33
2018-04-19T12:21:36.051Z,28.09
2018-04-19T12:24:03.758Z,28.55
2018-04-19T12:26:31.348Z,28.28
2018-04-19T12:28:59.103Z,27.98
2018-04-19T12:31:26.822Z,27.57
2018-04-19T12:33:54.401Z,27.14
2018-04-19T12:36:22.159Z,26.69
2018-04-19T12:38:49.877Z,26.78
2018-04-19T12:41:17.487Z,27.03
2018-04-19T12:43:45.106Z,27.17
2018-04-19T12:46:12.725Z,27.06
2018-04-19T12:48:40.291Z,27.02
2018-04-19T12:51:07.844Z,27.30
2018-04-19T12:53:35.412Z,27.63
2018-04-19T12:56:03.102Z,28.13
2018-04-19T12:58:30.669Z,28.20
2018-04-19T13:00:58.221Z,27.92
2018-04-19T13:03:25.885Z,27.99
2018-04-19T13:05:53.674Z,27.41
2018-04-19T13:08:21.240Z,27.27
2018-04-19T13:10:48.813Z,26.80
2018-04-19T13:13:16.373Z,26.37
2018-04-19T13:15:44.147Z,26.40
2018-04-19T13:18:11.914Z,26.05
2018-04-19T13:20:39.682Z,25.61
2018-04-19T13:23:07.400Z,25.55
2018-04-19T13:25:34.961Z,25.84
2018-04-19T13:28:02.628Z,26.25
2018-04-19T13:30:30.188Z,26.58
2018-04-19T13:32:57.864Z,26.62
2018-04-19T13:35:25.433Z,26.46
2018-04-19T13:37:53.058Z,26.48
2018-04-19T13:40:20.830Z,26.44
2018-04-19T13:42:48.647Z,26.17
2018-04-19T13:45:16.245Z,25.98
2018-04-19T13:47:43.957Z,25.94
2018-04-19T13:50:11.801Z,26.18
2018-04-19T13:52:39.410Z,26.21
2018-04-19T13:55:06.975Z,26.49
2018-04-19T13:57:34.567Z,26.50
2018-04-19T14:00:02.242Z,26.59
2018-04-19T14:02:29.881Z,26.86
2018-04-19T14:04:57.448Z,26.96
2018-04-19T14:07:25.033Z,27.24
2018-04-19T14:09:52.624Z,27.38
2018-04-19T14:12:20.170Z,27.15
2018-04-19T14:14:47.788Z,26.99
2018-04-19T14:17:15.346Z,26.65
2018-04-19T14:19:43.004Z,26.59
2018-04-19T14:22:10.584Z,26.31
2018-04-19T14:24:38.165Z,26.32
2018-04-19T14:27:05.772Z,26.31
2018-04-19T14:29:33.333Z,26.13
2018-04-19T14:32:01.022Z,25.75
2018-04-19T14:34:28.827Z,25.73
2018-04-19T14:36:56.384Z,25.79
2018-04-19T14:39:24.016Z,25.86
2018-04-19T14:41:51.802Z,25.91
2018-04-19T14:44:19.597Z,25.95
2018-04-19T14:46:47.168Z,26.03
2018-04-19T14:49:14.781Z,25.77
2018-04-19T14:51:42.339Z,25.46
2018-04-19T14:54:10.020Z,25.25
2018-04-19T14:56:37.888Z,24.96
2018-04-19T14:59:05.496Z,24.91
2018-04-19T15:01:33.057Z,24.90
2018-04-19T15:04:00.607Z,24.90
2018-04-19T15:06:28.143Z,25.01
2018-04-19T15:08:55.732Z,25.23
2018-04-19T15:11:23.288Z,25.27
2018-04-19T15:13:51.112Z,25.32
2018-04-19T15:16:18.677Z,25.15
2018-04-19T15:18:46.240Z,25.05
2018-04-19T15:21:13.812Z,25.06
2018-04-19T15:23:41.388Z,25.10
2018-04-19T15:26:08.960Z,25.09
2018-04-19T15:28:36.720Z,24.74
2018-04-19T15:31:04.477Z,24.69
2018-04-19T15:33:32.257Z,24.66
2018-04-19T15:35:59.833Z,24.77
2018-04-19T15:38:27.640Z,24.84
2018-04-19T15:40:55.326Z,24.91
2018-04-19T15:43:23.132Z,24.97
2018-04-19T15:45:50.684Z,24.91
2018-04-19T15:48:18.361Z,24.83
2018-04-19T15:50:45.979Z,24.66
2018-04-19T15:53:13.536Z,24.51
2018-04-19T15:55:41.104Z,24.31
2018-04-19T15:58:08.660Z,24.25
2018-04-19T16:00:36.456Z,24.14
2018-04-19T16:03:04.022Z,24.09
2018-04-19T16:05:31.897Z,23.95
2018-04-19T16:07:59.457Z,23.93
2018-04-19T16:10:27.016Z,23.84
2018-04-19T16:12:54.593Z,23.72
2018-04-19T16:15:22.145Z,23.62
2018-04-19T16:17:49.792Z,23.39
2018-04-19T16:20:17.353Z,23.33
2018-04-19T16:22:44.965Z,23.28
2018-04-19T16:25:12.528Z,23.19
2018-04-19T16:27:40.107Z,23.16
2018-04-19T16:30:07.871Z,23.11
2018-04-19T16:32:35.588Z,23.01
2018-04-19T16:35:03.201Z,22.96
2018-04-19T16:37:30.817Z,22.92
2018-04-19T16:39:58.397Z,22.78
2018-04-19T16:42:25.984Z,22.70
2018-04-19T16:44:53.782Z,22.59
2018-04-19T16:47:21.358Z,22.51
2018-04-19T16:49:48.936Z,22.44
2018-04-19T16:52:16.731Z,22.28
2018-04-19T16:54:44.293Z,22.21
2018-04-19T16:57:11.900Z,22.10
2018-04-19T16:59:39.685Z,21.92
2018-04-19T17:02:07.533Z,21.80
2018-04-19T17:04:35.143Z,21.72
2018-04-19T17:07:02.733Z,21.59
2018-04-19T17:09:30.336Z,21.53
2018-04-19T17:12:03.650Z,21.38
2018-04-19T17:14:31.787Z,21.29
2018-04-19T17:16:59.265Z,21.23
2018-04-19T17:19:26.824Z,21.09
2018-04-19T17:21:54.425Z,21.02
2018-04-19T17:24:22.269Z,20.92
2018-04-19T17:26:49.882Z,20.79
2018-04-19T17:29:17.604Z,20.68
2018-04-19T17:31:45.225Z,20.61
2018-04-19T17:34:12.797Z,20.58
2018-04-19T17:36:40.559Z,20.53
2018-04-19T17:39:08.382Z,20.44
2018-04-19T17:41:36.163Z,20.34
2018-04-19T17:44:03.764Z,20.29
2018-04-19T17:46:31.496Z,20.25
2018-04-19T17:48:59.121Z,20.13
2018-04-19T17:51:26.693Z,20.04
2018-04-19T17:53:54.490Z,20.00
2018-04-19T17:56:22.061Z,19.93
2018-04-19T17:58:49.624Z,19.91
2018-04-19T18:01:17.234Z,19.85
2018-04-19T18:03:44.788Z,19.74
2018-04-19T18:06:12.655Z,19.72
2018-04-19T18:08:40.217Z,19.67
2018-04-19T18:11:07.784Z,19.65
2018-04-19T18:13:35.357Z,19.64
2018-04-19T18:16:02.938Z,19.60
2018-04-19T18:18:30.666Z,19.55
2018-04-19T18:20:58.229Z,19.50
2018-04-19T18:23:25.841Z,19.47
2018-04-19T18:25:53.620Z,19.39
2018-04-19T18:28:21.239Z,19.31
2018-04-19T18:30:48.875Z,19.25
2018-04-19T18:33:16.465Z,19.19
2018-04-19T18:35:44.145Z,19.12
2018-04-19T18:38:11.736Z,19.01
2018-04-19T18:40:39.529Z,18.98
2018-04-19T18:43:07.088Z,18.88
2018-04-19T18:45:34.866Z,18.78
2018-04-19T18:48:02.465Z,18.70
2018-04-19T18:50:30.034Z,18.64
2018-04-19T18:52:57.603Z,18.65
2018-04-19T18:55:25.160Z,18.65
2018-04-19T18:57:52.936Z,18.59
2018-04-19T19:00:20.493Z,18.57
2018-04-19T19:02:48.294Z,18.45
2018-04-19T19:05:15.968Z,18.40
2018-04-19T19:07:43.555Z,18.40
2018-04-19T19:10:11.118Z,18.35
2018-04-19T19:12:38.865Z,18.31
2018-04-19T19:18:21.468Z,18.18
2018-04-19T19:20:49.081Z,18.14
2018-04-19T19:23:16.625Z,18.05
2018-04-19T19:25:44.404Z,18.02
2018-04-19T19:28:12.140Z,18.00
2018-04-19T19:30:39.709Z,17.95
2018-04-19T19:33:07.285Z,17.87
2018-04-19T19:35:34.976Z,17.81
2018-04-19T19:38:02.812Z,17.76
2018-04-19T19:40:30.380Z,17.71
2018-04-19T19:42:58.055Z,17.70
2018-04-19T19:45:25.694Z,17.56
2018-04-19T19:47:53.484Z,17.55
2018-04-19T19:50:21.087Z,17.54
2018-04-19T19:52:48.725Z,17.53
2018-04-19T19:55:16.384Z,17.49
2018-04-19T19:57:43.974Z,17.47
2018-04-19T20:00:11.775Z,17.51
2018-04-19T20:02:39.354Z,17.50
2018-04-19T20:05:06.920Z,17.48
2018-04-19T20:07:34.730Z,17.54
2018-04-19T20:10:02.476Z,17.56
2018-04-19T20:12:30.150Z,17.61
2018-04-19T20:14:57.867Z,17.64
2018-04-19T20:17:25.704Z,17.68
2018-04-19T20:19:53.527Z,17.71
2018-04-19T20:22:21.130Z,17.67
2018-04-19T20:24:48.750Z,17.65
2018-04-19T20:27:16.577Z,17.68
2018-04-19T20:29:44.302Z,17.64
2018-04-19T20:32:11.875Z,17.57
2018-04-19T20:34:39.437Z,17.41
2018-04-19T20:37:07.009Z,17.32
2018-04-19T20:39:34.585Z,17.27
2018-04-19T20:42:02.182Z,17.22
2018-04-19T20:44:29.744Z,17.20
2018-04-19T20:46:57.427Z,17.19
2018-04-19T20:49:25.368Z,17.13
2018-04-19T20:51:53.149Z,17.11
2018-04-19T20:54:20.720Z,17.14
2018-04-19T20:56:48.475Z,17.12
2018-04-19T20:59:16.249Z,17.09
2018-04-19T21:01:43.833Z,17.09
2018-04-19T21:04:11.650Z,17.11
2018-04-19T21:06:39.467Z,17.09
2018-04-19T21:09:07.065Z,17.14
2018-04-19T21:11:34.685Z,17.20
2018-04-19T21:14:02.244Z,17.23
2018-04-19T21:16:29.848Z,17.26
2018-04-19T21:18:57.657Z,17.35
2018-04-19T21:21:25.273Z,17.41
2018-04-19T21:23:52.928Z,17.51
2018-04-19T21:26:20.680Z,17.53
2018-04-19T21:28:48.260Z,17.70
2018-04-19T21:31:15.888Z,17.74
2018-04-19T21:33:43.464Z,17.86
2018-04-19T21:36:11.269Z,17.87
2018-04-19T21:38:38.902Z,17.95
2018-04-19T21:41:06.465Z,18.02
2018-04-19T21:43:34.028Z,18.11
2018-04-19T21:46:01.609Z,18.19
2018-04-19T21:48:29.374Z,18.24
2018-04-19T21:50:56.985Z,18.24
2018-04-19T21:53:24.627Z,18.29
2018-04-19T21:55:52.253Z,18.33
2018-04-19T21:58:20.046Z,18.27
2018-04-19T22:00:47.594Z,18.27
2018-04-19T22:03:15.383Z,18.25
2018-04-19T22:05:42.991Z,18.33
2018-04-19T22:08:10.585Z,18.39
2018-04-19T22:10:38.178Z,18.48
2018-04-19T22:13:05.808Z,18.50
2018-04-19T22:15:33.573Z,18.56
2018-04-19T22:18:01.280Z,18.57
2018-04-19T22:20:28.868Z,18.54
2018-04-19T22:22:56.619Z,18.48
2018-04-19T22:25:24.216Z,18.49
2018-04-19T22:27:51.788Z,18.42
2018-04-19T22:30:19.682Z,18.39
2018-04-19T22:32:47.254Z,18.38
2018-04-19T22:35:14.832Z,18.37
2018-04-19T22:37:42.416Z,18.34
2018-04-19T22:40:10.169Z,18.32
2018-04-19T22:42:37.738Z,18.21
2018-04-19T22:45:05.334Z,18.18
2018-04-19T22:47:33.180Z,18.08
2018-04-19T22:50:00.748Z,18.01
2018-04-19T22:52:28.325Z,17.96
2018-04-19T22:54:55.904Z,17.86
2018-04-19T22:57:23.481Z,17.68
2018-04-19T22:59:51.298Z,17.54
2018-04-19T23:02:18.877Z,17.47
2018-04-19T23:04:46.736Z,17.44
2018-04-19T23:07:14.320Z,17.42
2018-04-19T23:09:42.072Z,17.36
2018-04-19T23:12:09.712Z,17.32
2018-04-19T23:14:37.285Z,17.28
2018-04-19T23:17:05.126Z,17.27
2018-04-19T23:19:32.717Z,17.26
2018-04-19T23:22:00.352Z,17.27
2018-04-19T23:24:28.083Z,17.29
2018-04-19T23:26:55.669Z,17.27
2018-04-19T23:29:23.276Z,17.22
2018-04-19T23:31:50.864Z,17.24
2018-04-19T23:34:18.654Z,17.24
2018-04-19T23:36:46.252Z,17.16
2018-04-19T23:39:13.884Z,17.17
2018-04-19T23:41:41.468Z,17.16
2018-04-19T23:44:09.041Z,17.12
2018-04-19T23:46:36.632Z,17.14
2018-04-19T23:49:04.224Z,17.13
2018-04-19T23:51:31.869Z,17.16
2018-04-19T23:53:59.696Z,17.14
2018-04-19T23:56:27.509Z,17.14
2018-04-19T23:58:55.094Z,17.11
